Time;durP1;ratioP1;P1;durP2;ratioP2;P2;SDS_P1;SDS_P2;PMS_P1;PMS_P2;Temp;Humidity;BMP_temperature;BMP_pressure;BME280_temperature;BME280_humidity;BME280_pressure;Samples;Min_cycle;Max_cycle;Signal;HPM_P1;HPM_P2
2023/09/28 00:01:41;;;;;;;20.92;12.25;;;;;;;;;;4941371;29;20196;-87
2023/09/28 00:04:20;;;;;;;15.48;11.82;;;;;;;;;;4950974;29;20150;-87
2023/09/28 00:07:14;;;;;;;17.02;11.30;;;;;;;;;;4950274;29;20055;-86
2023/09/28 00:13:13;;;;;;;16.50;11.55;;;;;;;;;;4939635;29;20167;-87
2023/09/28 00:16:18;;;;;;;19.45;11.10;;;;;;;;;;4965240;29;20074;-87
2023/09/28 00:19:25;;;;;;;15.38;11.07;;;;;;;;;;4927944;29;20051;-87
2023/09/28 00:22:05;;;;;;;12.85;9.63;;;;;;;;;;4927234;29;20059;-87
2023/09/28 00:24:48;;;;;;;15.80;10.20;;;;;;;;;;4927169;29;20058;-87
2023/09/28 00:27:31;;;;;;;14.50;10.02;;;;;;;;;;4917060;29;20064;-87
2023/09/28 00:30:22;;;;;;;17.73;9.77;;;;;;;;;;4927941;29;20052;-87
2023/09/28 00:33:08;;;;;;;15.43;9.23;;;;;;;;;;4911245;29;20135;-88
2023/09/28 00:35:54;;;;;;;11.77;9.77;;;;;;;;;;4926737;29;20082;-87
2023/09/28 00:38:52;;;;;;;12.30;8.80;;;;;;;;;;4925784;29;20074;-87
2023/09/28 00:41:30;;;;;;;12.75;8.80;;;;;;;;;;4926428;29;20206;-88
2023/09/28 00:44:25;;;;;;;13.98;9.40;;;;;;;;;;4924431;29;20052;-87
2023/09/28 00:47:24;;;;;;;11.50;9.02;;;;;;;;;;4924054;29;20050;-89
2023/09/28 00:50:28;;;;;;;11.93;8.57;;;;;;;;;;4948528;29;20040;-87
2023/09/28 00:53:10;;;;;;;14.90;9.60;;;;;;;;;;4927973;29;20120;-87
2023/09/28 00:56:05;;;;;;;15.38;9.82;;;;;;;;;;4901436;29;20076;-87
2023/09/28 00:58:53;;;;;;;13.95;10.80;;;;;;;;;;4885712;29;20107;-88
2023/09/28 01:01:47;;;;;;;14.23;10.57;;;;;;;;;;4901434;29;20111;-87
2023/09/28 01:04:31;;;;;;;16.02;9.68;;;;;;;;;;4914487;29;20032;-86
2023/09/28 01:07:34;;;;;;;15.50;10.30;;;;;;;;;;4913383;29;20059;-87
2023/09/28 01:10:24;;;;;;;13.27;10.38;;;;;;;;;;4908747;29;20079;-87
2023/09/28 01:13:35;;;;;;;15.32;10.57;;;;;;;;;;4910174;29;20128;-87
2023/09/28 01:16:19;;;;;;;13.77;9.90;;;;;;;;;;4904463;29;20065;-87
2023/09/28 01:19:09;;;;;;;15.07;11.32;;;;;;;;;;4895315;29;20140;-86
2023/09/28 01:21:39;;;;;;;12.43;10.45;;;;;;;;;;4909442;29;20056;-87
2023/09/28 01:24:44;;;;;;;14.90;10.20;;;;;;;;;;4896283;29;20123;-87
2023/09/28 01:27:32;;;;;;;16.58;10.40;;;;;;;;;;4910250;29;20164;-87
2023/09/28 01:30:15;;;;;;;17.90;10.90;;;;;;;;;;4908789;29;20267;-87
2023/09/28 01:32:59;;;;;;;17.05;11.50;;;;;;;;;;4909648;29;20032;-86
2023/09/28 01:35:38;;;;;;;21.05;11.77;;;;;;;;;;4911357;29;20056;-88
2023/09/28 01:41:36;;;;;;;17.00;11.30;;;;;;;;;;4932137;29;20062;-89
2023/09/28 01:47:36;;;;;;;19.67;11.38;;;;;;;;;;4923963;29;20071;-89
2023/09/28 01:53:29;;;;;;;15.30;10.40;;;;;;;;;;4875439;29;20085;-89
2023/09/28 01:56:14;;;;;;;14.70;10.95;;;;;;;;;;4930531;29;20115;-88
2023/09/28 01:59:05;;;;;;;21.70;10.02;;;;;;;;;;4923208;29;20055;-88
2023/09/28 02:01:52;;;;;;;15.75;11.23;;;;;;;;;;4946069;28;20039;-88
2023/09/28 02:04:36;;;;;;;16.15;9.48;;;;;;;;;;4976313;28;20095;-88
2023/09/28 02:10:53;;;;;;;13.35;9.60;;;;;;;;;;4974735;29;20034;-88
2023/09/28 02:13:56;;;;;;;13.43;9.88;;;;;;;;;;4958822;29;20044;-88
2023/09/28 02:16:44;;;;;;;17.80;9.40;;;;;;;;;;4973208;29;20051;-89
2023/09/28 02:19:42;;;;;;;12.13;8.15;;;;;;;;;;4968026;29;20059;-90
2023/09/28 02:22:52;;;;;;;15.35;8.23;;;;;;;;;;4975028;29;20069;-88
2023/09/28 02:25:34;;;;;;;10.27;7.47;;;;;;;;;;4971680;28;20051;-88
2023/09/28 02:28:32;;;;;;;12.52;7.50;;;;;;;;;;4956555;29;20075;-88
2023/09/28 02:31:37;;;;;;;11.55;7.28;;;;;;;;;;4962373;28;20450;-90
2023/09/28 02:34:33;;;;;;;9.18;7.07;;;;;;;;;;4971473;28;20108;-89
2023/09/28 02:37:19;;;;;;;10.63;6.60;;;;;;;;;;4956136;29;20111;-89
2023/09/28 02:40:19;;;;;;;8.70;6.18;;;;;;;;;;4953447;29;20130;-89
2023/09/28 02:43:19;;;;;;;7.63;6.38;;;;;;;;;;4945881;29;20066;-89
2023/09/28 02:46:14;;;;;;;;;;;;;;;;;;;;;
2023/09/28 02:49:11;;;;;;;8.65;6.28;;;;;;;;;;4948779;29;20059;-88
2023/09/28 02:52:12;;;;;;;8.38;5.60;;;;;;;;;;4967809;28;20414;-87
2023/09/28 02:57:56;;;;;;;8.63;6.40;;;;;;;;;;4962543;29;20048;-88
2023/09/28 03:00:44;;;;;;;8.48;6.80;;;;;;;;;;4953644;29;20047;-88
2023/09/28 03:03:27;;;;;;;9.57;6.07;;;;;;;;;;4975828;29;20066;-90
2023/09/28 03:06:11;;;;;;;10.80;6.95;;;;;;;;;;4956018;29;20142;-87
2023/09/28 03:08:45;;;;;;;11.25;7.45;;;;;;;;;;4948304;29;20055;-89
2023/09/28 03:11:51;;;;;;;12.20;6.90;;;;;;;;;;4950400;29;20087;-88
2023/09/28 03:14:37;;;;;;;12.95;6.28;;;;;;;;;;4973714;28;20459;-88
2023/09/28 03:17:14;;;;;;;10.13;6.03;;;;;;;;;;4965188;28;20134;-89
2023/09/28 03:20:28;;;;;;;8.85;5.32;;;;;;;;;;4953644;29;20086;-88
2023/09/28 03:23:12;;;;;;;14.02;6.40;;;;;;;;;;4961883;29;20148;-88
2023/09/28 03:25:42;;;;;;;9.82;6.45;;;;;;;;;;4944867;29;20058;-87
2023/09/28 03:28:21;;;;;;;10.57;6.63;;;;;;;;;;4952597;29;20051;-89
2023/09/28 03:31:21;;;;;;;10.27;6.97;;;;;;;;;;4951240;29;20054;-88
2023/09/28 03:34:28;;;;;;;8.07;5.90;;;;;;;;;;4890609;29;20048;-88
2023/09/28 03:38:12;;;;;;;11.00;6.38;;;;;;;;;;4839596;29;20075;-87
2023/09/28 03:40:57;;;;;;;7.43;5.60;;;;;;;;;;4887610;29;20041;-87
2023/09/28 03:43:42;;;;;;;9.20;5.95;;;;;;;;;;4887402;29;20200;-89
2023/09/28 03:46:38;;;;;;;11.20;5.93;;;;;;;;;;4870585;29;20060;-89
2023/09/28 03:49:41;;;;;;;10.10;6.43;;;;;;;;;;5261881;23;20116;-88
2023/09/28 03:58:49;;;;;;;7.75;5.25;;;;;;;;;;5364016;23;20069;-88
2023/09/28 04:01:44;;;;;;;9.60;6.13;;;;;;;;;;4905619;29;20087;-88
2023/09/28 04:05:07;;;;;;;9.18;6.88;;;;;;;;;;4944647;28;20109;-89
2023/09/28 04:07:52;;;;;;;9.65;5.80;;;;;;;;;;4986439;28;20050;-89
2023/09/28 04:10:58;;;;;;;8.32;5.90;;;;;;;;;;4988105;28;20055;-89
2023/09/28 04:13:50;;;;;;;8.27;5.53;;;;;;;;;;4987036;28;20119;-88
2023/09/28 04:16:29;;;;;;;10.48;5.75;;;;;;;;;;4973542;28;20050;-88
2023/09/28 04:19:19;;;;;;;8.57;5.65;;;;;;;;;;4974008;28;20058;-88
2023/09/28 04:21:56;;;;;;;9.27;5.78;;;;;;;;;;4973475;28;20054;-88
2023/09/28 04:24:52;;;;;;;7.10;5.90;;;;;;;;;;4972553;28;20055;-88
2023/09/28 04:34:15;;;;;;;9.15;5.50;;;;;;;;;;4985930;28;20129;-89
2023/09/28 04:37:03;;;;;;;8.38;5.65;;;;;;;;;;4988705;28;20078;-89
2023/09/28 04:40:24;;;;;;;7.53;5.05;;;;;;;;;;4971782;28;20113;-87
2023/09/28 04:43:09;;;;;;;0.00;0.00;;;;;;;;;;4966167;29;20094;-88
2023/09/28 04:45:50;;;;;;;8.75;5.25;;;;;;;;;;4949535;29;20063;-89
2023/09/28 04:51:49;;;;;;;;;;;;;;;;;;;;;
2023/09/28 04:54:47;;;;;;;6.43;5.28;;;;;;;;;;4963016;29;20053;-88
2023/09/28 04:57:54;;;;;;;7.82;5.13;;;;;;;;;;4966530;29;20117;-88
2023/09/28 05:00:38;;;;;;;8.18;4.95;;;;;;;;;;4952621;29;20069;-89
2023/09/28 05:03:21;;;;;;;7.80;5.32;;;;;;;;;;4933633;29;20178;-89
2023/09/28 05:06:37;;;;;;;7.68;5.50;;;;;;;;;;4958450;29;20073;-89
2023/09/28 05:09:25;;;;;;;6.13;4.97;;;;;;;;;;4933814;29;20127;-89
2023/09/28 05:12:09;;;;;;;8.13;6.05;;;;;;;;;;4956050;29;20522;-89
2023/09/28 05:14:40;;;;;;;9.10;5.25;;;;;;;;;;4958487;28;20111;-89
2023/09/28 05:17:40;;;;;;;8.40;5.78;;;;;;;;;;4960484;28;20061;-88
2023/09/28 05:20:25;;;;;;;10.38;5.57;;;;;;;;;;4960639;28;20070;-89
2023/09/28 05:23:15;;;;;;;11.55;6.03;;;;;;;;;;4963766;28;20058;-88
2023/09/28 05:26:00;;;;;;;8.38;5.90;;;;;;;;;;4963028;28;20072;-88
2023/09/28 05:28:35;;;;;;;8.73;6.18;;;;;;;;;;4983801;28;20065;-88
2023/09/28 05:31:16;;;;;;;9.45;5.68;;;;;;;;;;4964116;28;20125;-90
2023/09/28 05:33:47;;;;;;;8.35;5.25;;;;;;;;;;4964380;28;20151;-89
2023/09/28 05:36:20;;;;;;;2.42;1.27;;;;;;;;;;4962677;28;20066;-89
2023/09/28 05:38:53;;;;;;;10.05;5.32;;;;;;;;;;4979491;28;20152;-90
2023/09/28 05:41:28;;;;;;;8.07;6.50;;;;;;;;;;4962278;28;20134;-89
2023/09/28 05:44:10;;;;;;;7.18;5.75;;;;;;;;;;4977539;28;20110;-89
2023/09/28 05:47:07;;;;;;;10.07;5.55;;;;;;;;;;4977221;28;20047;-89
2023/09/28 05:50:04;;;;;;;7.53;5.63;;;;;;;;;;4970642;28;20251;-89
2023/09/28 05:52:47;;;;;;;9.18;5.90;;;;;;;;;;4960402;28;20050;-89
2023/09/28 05:55:31;;;;;;;11.10;5.20;;;;;;;;;;4955504;28;20054;-89
2023/09/28 05:58:10;;;;;;;19.25;6.22;;;;;;;;;;4957353;28;20292;-90
2023/09/28 06:01:32;;;;;;;8.52;5.47;;;;;;;;;;4957928;28;20065;-90
2023/09/28 06:04:51;;;;;;;7.07;5.63;;;;;;;;;;4983972;28;20122;-90
2023/09/28 06:07:41;;;;;;;8.18;5.75;;;;;;;;;;4975130;28;20527;-87
2023/09/28 06:10:24;;;;;;;9.68;5.90;;;;;;;;;;4959093;28;20054;-88
2023/09/28 06:13:34;;;;;;;9.32;4.88;;;;;;;;;;4960069;28;20117;-87
2023/09/28 06:16:29;;;;;;;11.52;5.40;;;;;;;;;;4932705;28;20083;-87
2023/09/28 06:19:04;;;;;;;6.90;5.07;;;;;;;;;;4961032;28;20065;-88
2023/09/28 06:21:49;;;;;;;12.60;6.10;;;;;;;;;;4961486;28;20047;-88
2023/09/28 06:44:31;;;;;;;8.20;3.83;;;;;;;;;;5815089;23;20031;-87
2023/09/28 15:20:19;;;;;;;7.57;2.42;;;;;;;;;;1763632;23;20464;-87
2023/09/28 15:23:36;;;;;;;11.02;2.40;;;;;;;;;;4928769;29;20071;-89
2023/09/28 15:26:38;;;;;;;15.13;2.10;;;;;;;;;;4919414;29;20036;-88
2023/09/28 15:29:37;;;;;;;12.45;2.33;;;;;;;;;;4918118;29;20051;-88
2023/09/28 15:32:24;;;;;;;10.50;2.63;;;;;;;;;;4913168;29;20059;-88
2023/09/28 15:35:13;;;;;;;7.10;2.30;;;;;;;;;;4935053;29;20083;-88
2023/09/28 15:37:52;;;;;;;10.65;2.45;;;;;;;;;;4920345;29;20047;-89
2023/09/28 15:40:39;;;;;;;9.57;2.30;;;;;;;;;;4934917;29;20312;-89
2023/09/28 15:43:30;;;;;;;;;;;;;;;;;;;;;
2023/09/28 15:50:04;;;;;;;10.75;2.38;;;;;;;;;;4930883;29;20297;-89
2023/09/28 15:52:57;;;;;;;16.05;2.65;;;;;;;;;;4926530;28;20063;-89
2023/09/28 15:55:56;;;;;;;14.70;2.58;;;;;;;;;;4921451;29;20234;-89
2023/09/28 16:05:26;;;;;;;11.57;2.13;;;;;;;;;;4933757;28;20127;-88
2023/09/28 16:15:55;;;;;;;;;;;;;;;;;;;;;
2023/09/28 16:18:58;;;;;;;10.77;2.42;;;;;;;;;;4921475;29;20036;-88
2023/09/28 16:25:28;;;;;;;9.95;2.90;;;;;;;;;;4925485;29;20088;-89
2023/09/28 16:28:33;;;;;;;9.25;2.05;;;;;;;;;;4848230;29;20054;-88
2023/09/28 16:31:21;;;;;;;13.18;2.50;;;;;;;;;;4918629;29;20059;-88
2023/09/28 16:34:16;;;;;;;;;;;;;;;;;;;;;
2023/09/28 16:37:06;;;;;;;12.93;2.60;;;;;;;;;;4921554;29;20079;-89
2023/09/28 16:40:16;;;;;;;7.45;2.35;;;;;;;;;;4831192;29;20054;-89
2023/09/28 16:43:35;;;;;;;;;;;;;;;;;;;;;
2023/09/28 16:46:34;;;;;;;13.80;3.00;;;;;;;;;;4831358;29;20054;-88
2023/09/28 16:49:11;;;;;;;9.93;1.80;;;;;;;;;;4850225;29;20050;-88
2023/09/28 16:51:56;;;;;;;;;;;;;;;;;;;;;
2023/09/28 16:54:40;;;;;;;8.25;2.35;;;;;;;;;;4848085;29;20138;-88
2023/09/28 16:57:38;;;;;;;;;;;;;;;;;;;;;
2023/09/28 17:00:34;;;;;;;18.75;3.42;;;;;;;;;;4844754;29;20087;-88
2023/09/28 17:06:40;;;;;;;10.95;2.53;;;;;;;;;;4842532;29;20058;-87
2023/09/28 17:09:22;;;;;;;10.35;2.35;;;;;;;;;;4842555;29;20053;-87
2023/09/28 17:11:53;;;;;;;9.88;2.65;;;;;;;;;;4842852;29;20293;-89
2023/09/28 17:17:41;;;;;;;9.77;2.95;;;;;;;;;;4917441;29;20051;-87
2023/09/28 17:20:18;;;;;;;10.20;2.38;;;;;;;;;;4926809;29;20075;-88
2023/09/28 17:22:57;;;;;;;11.43;3.10;;;;;;;;;;4974460;28;20074;-88
2023/09/28 17:25:38;;;;;;;8.02;2.53;;;;;;;;;;4963183;28;20047;-88
2023/09/28 17:28:14;;;;;;;8.05;2.47;;;;;;;;;;4973218;28;20225;-88
2023/09/28 17:30:59;;;;;;;6.43;2.22;;;;;;;;;;4971903;28;20070;-88
2023/09/28 17:33:48;;;;;;;15.18;2.60;;;;;;;;;;4978872;28;20058;-89
2023/09/28 17:36:28;;;;;;;11.13;2.50;;;;;;;;;;4948491;29;20177;-91
2023/09/28 17:38:58;;;;;;;8.50;2.65;;;;;;;;;;4941337;29;20051;-90
2023/09/28 17:41:46;;;;;;;15.82;3.13;;;;;;;;;;4964290;29;20283;-90
2023/09/28 17:44:35;;;;;;;9.05;2.67;;;;;;;;;;4951858;29;20059;-90
2023/09/28 17:47:31;;;;;;;10.38;2.28;;;;;;;;;;4975981;28;20407;-90
2023/09/28 17:50:05;;;;;;;6.60;1.75;;;;;;;;;;4933399;29;20235;-90
2023/09/28 17:52:48;;;;;;;6.93;1.73;;;;;;;;;;4975514;28;20051;-90
2023/09/28 17:56:04;;;;;;;6.85;1.98;;;;;;;;;;4947248;29;20054;-90
2023/09/28 17:58:53;;;;;;;11.32;2.53;;;;;;;;;;4946969;29;20542;-90
2023/09/28 18:01:25;;;;;;;8.80;2.60;;;;;;;;;;4973146;28;20043;-88
2023/09/28 18:04:05;;;;;;;10.30;2.65;;;;;;;;;;4946056;29;20089;-90
2023/09/28 18:06:55;;;;;;;9.43;2.78;;;;;;;;;;4977996;28;20047;-90
2023/09/28 18:09:41;;;;;;;11.88;3.38;;;;;;;;;;4976905;28;20051;-89
2023/09/28 18:12:50;;;;;;;;;;;;;;;;;;;;;
2023/09/28 18:15:51;;;;;;;11.52;2.60;;;;;;;;;;4971708;28;20071;-90
2023/09/28 18:18:33;;;;;;;7.47;2.90;;;;;;;;;;4953587;28;20062;-90
2023/09/28 18:21:13;;;;;;;11.80;3.25;;;;;;;;;;4944068;29;20111;-90
2023/09/28 18:23:57;;;;;;;9.68;2.90;;;;;;;;;;4927999;29;20259;-89
2023/09/28 18:26:44;;;;;;;11.48;3.78;;;;;;;;;;4943958;29;20052;-89
2023/09/28 18:29:25;;;;;;;7.22;2.22;;;;;;;;;;4983043;23;20096;-89
2023/09/28 18:32:14;;;;;;;10.30;3.03;;;;;;;;;;4948119;29;20079;-88
2023/09/28 18:34:48;;;;;;;10.25;2.97;;;;;;;;;;4963175;29;20047;-89
2023/09/28 18:37:35;;;;;;;8.82;2.40;;;;;;;;;;4940142;29;20083;-89
2023/09/28 18:43:50;;;;;;;16.52;2.67;;;;;;;;;;4907194;29;20069;-89
2023/09/28 18:46:33;;;;;;;13.98;3.28;;;;;;;;;;4889547;29;20060;-89
2023/09/28 18:49:35;;;;;;;18.08;4.05;;;;;;;;;;4905890;29;20113;-89
2023/09/28 18:52:32;;;;;;;11.32;2.75;;;;;;;;;;4891708;29;20068;-90
2023/09/28 18:55:35;;;;;;;9.15;2.97;;;;;;;;;;4903829;29;20151;-89
2023/09/28 18:58:36;;;;;;;11.27;3.25;;;;;;;;;;4913631;29;20036;-92
2023/09/28 19:01:17;;;;;;;14.85;3.65;;;;;;;;;;4908143;29;20091;-89
2023/09/28 19:03:52;;;;;;;16.05;2.72;;;;;;;;;;4913788;29;20057;-90
2023/09/28 19:06:34;;;;;;;20.83;3.78;;;;;;;;;;4906143;29;20147;-89
2023/09/28 19:09:25;;;;;;;17.17;4.47;;;;;;;;;;4904921;29;20112;-89
2023/09/28 19:12:18;;;;;;;;;;;;;;;;;;4942367;29;20051;-88
2023/09/28 19:14:51;;;;;;;14.45;4.55;;;;;;;;;;4931889;29;19911;-89
2023/09/28 19:17:41;;;;;;;14.57;3.85;;;;;;;;;;4938567;28;20039;-89
2023/09/28 19:20:48;;;;;;;20.77;4.05;;;;;;;;;;4936107;29;20079;-90
2023/09/28 19:23:48;;;;;;;;;;;;;;;;;;;;;
2023/09/28 19:26:49;;;;;;;10.77;3.22;;;;;;;;;;4945029;29;20052;-88
2023/09/28 19:29:56;;;;;;;12.88;4.40;;;;;;;;;;4934375;29;20051;-89
2023/09/28 19:32:44;;;;;;;11.18;3.15;;;;;;;;;;4931492;29;20150;-90
2023/09/28 19:35:26;;;;;;;11.50;3.60;;;;;;;;;;4929773;29;20052;-89
2023/09/28 19:38:13;;;;;;;14.02;3.58;;;;;;;;;;4927061;29;20056;-89
2023/09/28 19:41:00;;;;;;;15.65;4.18;;;;;;;;;;4928420;29;20111;-90
2023/09/28 19:43:56;;;;;;;12.02;3.45;;;;;;;;;;4928527;29;20056;-89
2023/09/28 19:46:43;;;;;;;13.07;3.63;;;;;;;;;;4932482;29;20221;-89
2023/09/28 19:49:41;;;;;;;;;;;;;;;;;;;;;
2023/09/28 19:52:43;;;;;;;;;;;;;;;;;;;;;
2023/09/28 19:55:31;;;;;;;10.30;4.15;;;;;;;;;;4912008;29;20459;-90
2023/09/28 19:58:38;;;;;;;20.45;4.53;;;;;;;;;;4954003;29;20110;-90
2023/09/28 20:01:21;;;;;;;14.05;3.85;;;;;;;;;;4948897;28;20047;-90
2023/09/28 20:04:04;;;;;;;13.45;4.25;;;;;;;;;;4951389;29;20051;-91
2023/09/28 20:06:44;;;;;;;12.82;4.18;;;;;;;;;;4965135;29;20063;-89
2023/09/28 20:09:14;;;;;;;13.52;4.38;;;;;;;;;;4949026;29;20059;-89
2023/09/28 20:12:18;;;;;;;;;;;;;;;;;;;;;
2023/09/28 20:18:28;;;;;;;13.40;3.97;;;;;;;;;;4967481;28;20042;-90
2023/09/28 20:21:30;;;;;;;14.98;3.72;;;;;;;;;;4948290;29;20055;-89
2023/09/28 20:24:09;;;;;;;19.20;4.68;;;;;;;;;;4957865;28;20070;-89
2023/09/28 20:27:07;;;;;;;12.15;3.15;;;;;;;;;;4955308;28;20067;-89
2023/09/28 20:30:01;;;;;;;17.63;4.07;;;;;;;;;;4968086;28;20074;-89
2023/09/28 20:33:03;;;;;;;10.77;3.97;;;;;;;;;;4967173;29;20048;-90
2023/09/28 20:35:55;;;;;;;13.77;4.03;;;;;;;;;;4948575;29;20078;-90
2023/09/28 20:41:52;;;;;;;13.57;4.35;;;;;;;;;;4968835;28;20046;-88
2023/09/28 20:44:44;;;;;;;13.40;4.00;;;;;;;;;;4968976;29;20047;-90
2023/09/28 20:47:20;;;;;;;12.93;3.80;;;;;;;;;;4951420;29;20051;-89
2023/09/28 20:50:04;;;;;;;16.85;4.43;;;;;;;;;;4967232;29;20042;-90
2023/09/28 20:52:56;;;;;;;12.07;3.95;;;;;;;;;;4967472;28;20055;-91
2023/09/28 20:55:38;;;;;;;16.30;4.93;;;;;;;;;;4952490;28;20051;-89
2023/09/28 20:58:31;;;;;;;18.63;4.07;;;;;;;;;;4952652;29;20055;-90
2023/09/28 21:01:16;;;;;;;13.13;4.07;;;;;;;;;;4953198;29;20055;-89
2023/09/28 21:04:03;;;;;;;9.38;3.35;;;;;;;;;;4960971;28;20079;-89
2023/09/28 21:06:45;;;;;;;9.77;3.20;;;;;;;;;;4951295;29;20051;-89
2023/09/28 21:09:28;;;;;;;15.38;3.80;;;;;;;;;;4966567;28;20082;-89
2023/09/28 21:12:34;;;;;;;15.83;4.07;;;;;;;;;;4946894;29;20067;-90
2023/09/28 21:15:13;;;;;;;12.57;4.15;;;;;;;;;;4954016;29;20497;-89
2023/09/28 21:17:52;;;;;;;12.55;4.20;;;;;;;;;;4954936;29;20086;-90
2023/09/28 21:20:40;;;;;;;13.43;3.20;;;;;;;;;;4954478;29;20083;-88
2023/09/28 21:23:24;;;;;;;15.35;4.60;;;;;;;;;;4970404;28;20079;-89
2023/09/28 21:26:17;;;;;;;18.25;4.13;;;;;;;;;;4957439;29;20055;-89
2023/09/28 21:29:02;;;;;;;8.50;3.22;;;;;;;;;;4957016;29;20067;-90
2023/09/28 21:31:57;;;;;;;11.27;4.03;;;;;;;;;;4970043;28;20047;-89
2023/09/28 21:34:47;;;;;;;11.88;4.30;;;;;;;;;;4969332;29;20055;-89
2023/09/28 21:40:58;;;;;;;;;;;;;;;;;;4935453;29;20051;-88
2023/09/28 21:43:53;;;;;;;15.10;4.00;;;;;;;;;;4967041;29;20432;-89
2023/09/28 21:46:23;;;;;;;12.23;4.38;;;;;;;;;;4971997;28;20062;-89
2023/09/28 21:48:54;;;;;;;15.55;4.40;;;;;;;;;;4944768;29;20055;-90
2023/09/28 21:52:23;;;;;;;13.77;3.88;;;;;;;;;;4973327;28;20086;-89
2023/09/28 21:55:10;;;;;;;11.95;4.32;;;;;;;;;;4936920;28;20039;-89
2023/09/28 21:57:56;;;;;;;13.73;4.10;;;;;;;;;;4952441;29;20079;-89
2023/09/28 22:00:52;;;;;;;16.05;3.70;;;;;;;;;;4949852;29;20069;-90
2023/09/28 22:07:01;;;;;;;18.73;5.13;;;;;;;;;;4925244;29;20032;-89
2023/09/28 22:09:55;;;;;;;9.05;3.90;;;;;;;;;;4879013;29;20488;-90
2023/09/28 22:12:48;;;;;;;15.50;4.45;;;;;;;;;;4879152;29;20136;-89
2023/09/28 22:15:28;;;;;;;21.17;4.53;;;;;;;;;;4863938;29;20065;-90
2023/09/28 22:18:15;;;;;;;11.38;3.75;;;;;;;;;;4880897;29;20455;-90
2023/09/28 22:20:46;;;;;;;12.55;4.32;;;;;;;;;;4861454;29;20064;-89
2023/09/28 22:23:23;;;;;;;10.20;4.65;;;;;;;;;;4865467;29;20045;-89
2023/09/28 22:25:59;;;;;;;18.45;5.55;;;;;;;;;;4863287;29;20049;-89
2023/09/28 22:29:01;;;;;;;15.32;5.22;;;;;;;;;;4878785;29;20049;-88
2023/09/28 22:31:53;;;;;;;14.95;4.75;;;;;;;;;;4855758;29;20244;-89
2023/09/28 22:34:55;;;;;;;20.92;6.32;;;;;;;;;;4845560;29;20078;-88
2023/09/28 22:41:08;;;;;;;10.73;5.18;;;;;;;;;;4834228;29;20088;-89
2023/09/28 22:43:49;;;;;;;15.25;6.65;;;;;;;;;;4894221;29;20068;-89
2023/09/28 22:46:31;;;;;;;16.52;5.88;;;;;;;;;;4899370;29;20116;-89
2023/09/28 22:49:20;;;;;;;12.75;6.00;;;;;;;;;;4889211;29;20082;-90
2023/09/28 22:52:35;;;;;;;21.00;5.55;;;;;;;;;;4885889;29;20057;-89
2023/09/28 22:55:19;;;;;;;16.80;6.03;;;;;;;;;;4954765;29;20066;-89
2023/09/28 22:58:16;;;;;;;16.02;6.88;;;;;;;;;;4942431;29;20047;-89
2023/09/28 23:01:13;;;;;;;16.73;5.88;;;;;;;;;;4956665;29;20103;-90
2023/09/28 23:04:06;;;;;;;13.45;5.80;;;;;;;;;;4935299;29;20059;-89
2023/09/28 23:06:48;;;;;;;13.95;7.00;;;;;;;;;;4940691;29;20046;-89
2023/09/28 23:13:13;;;;;;;12.05;6.13;;;;;;;;;;4898554;29;20043;-90
2023/09/28 23:15:50;;;;;;;14.10;6.18;;;;;;;;;;4954805;29;20083;-90
2023/09/28 23:18:57;;;;;;;15.05;5.68;;;;;;;;;;4934473;29;20055;-89
2023/09/28 23:21:45;;;;;;;12.48;6.72;;;;;;;;;;4951217;29;20043;-89
2023/09/28 23:24:50;;;;;;;16.25;6.45;;;;;;;;;;4946298;29;20107;-88
2023/09/28 23:27:58;;;;;;;12.85;7.03;;;;;;;;;;4937811;29;20043;-90
2023/09/28 23:30:55;;;;;;;16.25;7.97;;;;;;;;;;4958156;29;20098;-89
2023/09/28 23:34:20;;;;;;;23.15;7.18;;;;;;;;;;4960861;29;20073;-89
2023/09/28 23:37:02;;;;;;;13.05;7.53;;;;;;;;;;4959404;29;20071;-90
2023/09/28 23:42:13;;;;;;;15.38;7.82;;;;;;;;;;5153980;23;20147;-89
2023/09/28 23:45:07;;;;;;;14.13;7.85;;;;;;;;;;4995051;28;20046;-90
2023/09/28 23:51:17;;;;;;;20.25;9.00;;;;;;;;;;4995428;28;20104;-88
2023/09/28 23:54:27;;;;;;;16.00;7.85;;;;;;;;;;4976889;28;20105;-88
2023/09/28 23:57:07;;;;;;;15.70;9.13;;;;;;;;;;4977113;28;20316;-89
2023/09/28 23:59:51;;;;;;;16.48;9.23;;;;;;;;;;4977051;28;20142;-89
